createdAt,value
2018-08-10T00:00:07.983Z,17.56
2018-08-10T00:01:07.981Z,17.51
2018-08-10T00:02:07.980Z,17.52
2018-08-10T00:03:07.973Z,17.51
2018-08-10T00:04:07.966Z,17.49
2018-08-10T00:05:07.962Z,17.45
2018-08-10T00:06:07.958Z,17.45
2018-08-10T00:07:07.960Z,17.36
2018-08-10T00:08:07.956Z,17.31
2018-08-10T00:09:07.957Z,17.24
2018-08-10T00:10:07.942Z,17.19
2018-08-10T00:11:07.944Z,17.15
2018-08-10T00:12:07.947Z,17.15
2018-08-10T00:13:07.942Z,17.16
2018-08-10T00:14:07.933Z,17.14
2018-08-10T00:15:07.927Z,17.16
2018-08-10T00:16:07.919Z,17.11
2018-08-10T00:17:07.918Z,17.20
2018-08-10T00:18:07.916Z,17.11
2018-08-10T00:19:07.908Z,17.08
2018-08-10T00:20:07.905Z,17.06
2018-08-10T00:21:07.911Z,17.16
2018-08-10T00:22:07.920Z,17.08
2018-08-10T00:23:07.889Z,17.06
2018-08-10T00:24:07.894Z,17.11
2018-08-10T00:25:07.884Z,17.16
2018-08-10T00:26:08.799Z,17.15
2018-08-10T00:27:07.883Z,17.16
2018-08-10T00:28:07.880Z,17.11
2018-08-10T00:29:07.870Z,17.20
2018-08-10T00:30:07.867Z,17.12
2018-08-10T00:31:07.883Z,17.15
2018-08-10T00:32:07.850Z,17.14
2018-08-10T00:33:07.873Z,17.09
2018-08-10T00:34:07.845Z,17.14
2018-08-10T00:35:08.787Z,17.12
2018-08-10T00:36:07.837Z,17.15
2018-08-10T00:37:07.837Z,17.08
2018-08-10T00:38:07.843Z,17.01
2018-08-10T00:39:07.833Z,16.94
2018-08-10T00:40:07.836Z,17.06
2018-08-10T00:41:07.833Z,17.06
2018-08-10T00:42:07.816Z,17.08
2018-08-10T00:43:07.802Z,17.06
2018-08-10T00:44:07.809Z,16.99
2018-08-10T00:45:07.810Z,16.93
2018-08-10T00:46:07.816Z,16.84
2018-08-10T00:47:07.807Z,16.87
2018-08-10T00:48:07.842Z,16.84
2018-08-10T00:49:07.796Z,16.86
2018-08-10T00:50:07.799Z,16.84
2018-08-10T00:51:07.792Z,16.81
2018-08-10T00:52:07.807Z,16.90
2018-08-10T00:53:07.771Z,16.89
2018-08-10T00:54:07.770Z,16.79
2018-08-10T00:55:07.772Z,16.89
2018-08-10T00:56:07.762Z,16.79
2018-08-10T00:57:07.758Z,16.75
2018-08-10T00:58:08.314Z,16.74
2018-08-10T00:59:07.752Z,16.72
2018-08-10T01:00:07.732Z,16.69
2018-08-10T01:01:07.726Z,16.66
2018-08-10T01:02:07.724Z,16.71
2018-08-10T01:03:07.722Z,16.66
2018-08-10T01:04:07.718Z,16.74
2018-08-10T01:05:07.719Z,16.68
2018-08-10T01:06:07.707Z,16.66
2018-08-10T01:07:07.706Z,16.68
2018-08-10T01:08:07.700Z,16.72
2018-08-10T01:09:07.694Z,16.68
2018-08-10T01:10:07.687Z,16.64
2018-08-10T01:11:07.684Z,16.71
2018-08-10T01:12:07.677Z,16.60
2018-08-10T01:13:07.753Z,16.74
2018-08-10T01:14:07.684Z,16.69
2018-08-10T01:15:07.663Z,16.68
2018-08-10T01:16:07.667Z,16.69
2018-08-10T01:17:07.665Z,16.68
2018-08-10T01:18:07.657Z,16.57
2018-08-10T01:19:07.744Z,16.54
2018-08-10T01:20:07.645Z,16.57
2018-08-10T01:21:07.643Z,16.60
2018-08-10T01:22:07.638Z,16.66
2018-08-10T01:23:07.639Z,16.51
2018-08-10T01:24:07.625Z,16.61
2018-08-10T01:25:07.621Z,16.56
2018-08-10T01:26:07.614Z,16.57
2018-08-10T01:27:07.624Z,16.56
2018-08-10T01:28:07.611Z,16.54
2018-08-10T01:29:07.608Z,16.57
2018-08-10T01:30:07.600Z,16.53
2018-08-10T01:31:07.595Z,16.61
2018-08-10T01:32:07.599Z,16.60
2018-08-10T01:33:07.583Z,16.54
2018-08-10T01:34:07.582Z,16.64
2018-08-10T01:35:07.593Z,16.60
2018-08-10T01:36:07.594Z,16.60
2018-08-10T01:37:07.574Z,16.58
2018-08-10T01:38:07.564Z,16.64
2018-08-10T01:39:07.568Z,16.61
2018-08-10T01:40:07.553Z,16.57
2018-08-10T01:41:07.558Z,16.57
2018-08-10T01:42:07.547Z,16.53
2018-08-10T01:43:07.543Z,16.61
2018-08-10T01:44:07.545Z,16.51
2018-08-10T01:45:07.544Z,16.56
2018-08-10T01:46:07.546Z,16.57
2018-08-10T01:47:07.527Z,16.58
2018-08-10T01:48:07.528Z,16.50
2018-08-10T01:49:07.517Z,16.56
2018-08-10T01:50:07.513Z,16.58
2018-08-10T01:51:07.503Z,16.47
2018-08-10T01:52:07.500Z,16.47
2018-08-10T01:53:07.509Z,16.36
2018-08-10T01:54:07.500Z,16.42
2018-08-10T01:55:07.491Z,16.46
2018-08-10T01:56:07.486Z,16.46
2018-08-10T01:57:07.487Z,16.33
2018-08-10T01:58:07.474Z,16.41
2018-08-10T01:59:07.477Z,16.46
2018-08-10T02:00:07.465Z,16.42
2018-08-10T02:01:07.461Z,16.38
2018-08-10T02:02:07.456Z,16.46
2018-08-10T02:03:07.456Z,16.46
2018-08-10T02:04:07.448Z,16.46
2018-08-10T02:05:07.443Z,16.43
2018-08-10T02:06:07.438Z,16.41
2018-08-10T02:07:07.432Z,16.43
2018-08-10T02:08:07.430Z,16.42
2018-08-10T02:09:07.424Z,16.46
2018-08-10T02:10:08.337Z,16.46
2018-08-10T02:11:07.416Z,16.42
2018-08-10T02:12:07.417Z,16.49
2018-08-10T02:13:07.403Z,16.47
2018-08-10T02:14:07.411Z,16.46
2018-08-10T02:15:07.406Z,16.38
2018-08-10T02:16:07.393Z,16.41
2018-08-10T02:17:07.391Z,16.38
2018-08-10T02:18:07.392Z,16.35
2018-08-10T02:19:07.388Z,16.32
2018-08-10T02:20:07.381Z,16.29
2018-08-10T02:21:07.372Z,16.28
2018-08-10T02:22:07.379Z,16.24
2018-08-10T02:23:07.363Z,16.28
2018-08-10T02:24:07.366Z,16.21
2018-08-10T02:25:07.352Z,16.16
2018-08-10T02:26:07.349Z,16.20
2018-08-10T02:27:07.343Z,16.10
2018-08-10T02:28:07.347Z,16.04
2018-08-10T02:29:07.337Z,16.09
2018-08-10T02:30:07.336Z,16.10
2018-08-10T02:31:07.335Z,16.05
2018-08-10T02:32:07.328Z,16.00
2018-08-10T02:33:07.327Z,16.08
2018-08-10T02:34:07.319Z,16.05
2018-08-10T02:35:07.308Z,16.08
2018-08-10T02:36:07.310Z,16.09
2018-08-10T02:37:07.298Z,16.02
2018-08-10T02:38:07.299Z,16.09
2018-08-10T02:39:07.294Z,16.09
2018-08-10T02:40:07.292Z,16.02
2018-08-10T02:41:07.288Z,16.08
2018-08-10T02:42:07.294Z,16.02
2018-08-10T02:43:07.271Z,16.01
2018-08-10T02:44:07.266Z,15.94
2018-08-10T02:45:07.270Z,15.97
2018-08-10T02:46:07.264Z,15.97
2018-08-10T02:47:07.254Z,15.95
2018-08-10T02:48:07.251Z,16.05
2018-08-10T02:49:07.245Z,16.04
2018-08-10T02:50:07.241Z,16.05
2018-08-10T02:51:07.238Z,16.04
2018-08-10T02:52:07.854Z,16.00
2018-08-10T02:53:07.224Z,15.98
2018-08-10T02:54:07.231Z,16.00
2018-08-10T02:55:07.215Z,15.94
2018-08-10T02:56:07.213Z,16.04
2018-08-10T02:57:07.207Z,16.00
2018-08-10T02:58:07.212Z,16.00
2018-08-10T02:59:07.200Z,15.88
2018-08-10T03:00:07.200Z,15.95
2018-08-10T03:01:07.865Z,15.97
2018-08-10T03:02:07.190Z,15.95
2018-08-10T03:03:07.888Z,15.92
2018-08-10T03:04:07.175Z,15.90
2018-08-10T03:05:07.169Z,15.91
2018-08-10T03:06:07.170Z,15.91
2018-08-10T03:07:07.164Z,15.84
2018-08-10T03:08:07.154Z,15.91
2018-08-10T03:09:07.156Z,15.90
2018-08-10T03:10:07.146Z,15.86
2018-08-10T03:11:07.146Z,15.84
2018-08-10T03:12:07.147Z,15.79
2018-08-10T03:13:07.133Z,15.84
2018-08-10T03:14:07.131Z,15.86
2018-08-10T03:15:07.132Z,15.90
2018-08-10T03:16:07.126Z,15.83
2018-08-10T03:17:07.127Z,15.90
2018-08-10T03:18:07.113Z,15.84
2018-08-10T03:19:07.107Z,15.86
2018-08-10T03:20:07.103Z,15.86
2018-08-10T03:21:07.107Z,15.77
2018-08-10T03:22:07.126Z,15.80
2018-08-10T03:23:07.117Z,15.84
2018-08-10T03:24:07.088Z,15.86
2018-08-10T03:25:07.074Z,15.77
2018-08-10T03:26:07.071Z,15.77
2018-08-10T03:27:07.073Z,15.82
2018-08-10T03:28:07.071Z,15.77
2018-08-10T03:29:07.059Z,15.88
2018-08-10T03:30:07.062Z,15.83
2018-08-10T03:31:07.045Z,15.83
2018-08-10T03:32:07.043Z,15.79
2018-08-10T03:33:07.041Z,15.80
2018-08-10T03:34:07.035Z,15.80
2018-08-10T03:35:07.030Z,15.80
2018-08-10T03:36:07.030Z,15.76
2018-08-10T03:37:07.027Z,15.75
2018-08-10T03:38:07.014Z,15.76
2018-08-10T03:39:07.022Z,15.79
2018-08-10T03:40:07.002Z,15.75
2018-08-10T03:41:06.995Z,15.79
2018-08-10T03:42:06.996Z,15.77
2018-08-10T03:43:06.992Z,15.73
2018-08-10T03:44:06.982Z,15.72
2018-08-10T03:45:06.983Z,15.70
2018-08-10T03:46:06.974Z,15.68
2018-08-10T03:47:06.972Z,15.72
2018-08-10T03:48:06.962Z,15.61
2018-08-10T03:49:06.963Z,15.62
2018-08-10T03:50:06.962Z,15.59
2018-08-10T03:51:06.956Z,15.61
2018-08-10T03:52:06.947Z,15.65
2018-08-10T03:53:06.938Z,15.58
2018-08-10T03:54:06.941Z,15.55
2018-08-10T03:55:06.933Z,15.52
2018-08-10T03:56:06.929Z,15.46
2018-08-10T03:57:06.918Z,15.33
2018-08-10T03:58:06.917Z,15.42
2018-08-10T03:59:06.912Z,15.36
2018-08-10T04:00:06.913Z,15.29
2018-08-10T04:01:06.900Z,15.35
2018-08-10T04:02:06.904Z,15.31
2018-08-10T04:03:06.899Z,15.27
2018-08-10T04:04:06.891Z,15.33
2018-08-10T04:05:06.884Z,15.29
2018-08-10T04:06:06.876Z,15.29
2018-08-10T04:07:06.871Z,15.27
2018-08-10T04:08:06.870Z,15.29
2018-08-10T04:09:06.867Z,15.19
2018-08-10T04:10:06.857Z,15.22
2018-08-10T04:11:06.853Z,15.29
2018-08-10T04:12:06.846Z,15.19
2018-08-10T04:13:06.844Z,15.19
2018-08-10T04:14:06.841Z,15.25
2018-08-10T04:15:06.833Z,15.18
2018-08-10T04:16:06.835Z,15.21
2018-08-10T04:17:06.824Z,15.11
2018-08-10T04:18:06.827Z,15.21
2018-08-10T04:19:06.835Z,15.11
2018-08-10T04:20:06.808Z,15.07
2018-08-10T04:21:06.803Z,15.11
2018-08-10T04:22:06.832Z,15.07
2018-08-10T04:23:06.810Z,15.06
2018-08-10T04:24:06.788Z,15.07
2018-08-10T04:25:06.784Z,15.09
2018-08-10T04:26:06.777Z,15.06
2018-08-10T04:27:06.779Z,15.09
2018-08-10T04:28:06.777Z,15.06
2018-08-10T04:29:06.787Z,15.02
2018-08-10T04:30:06.757Z,15.00
2018-08-10T04:31:06.762Z,15.03
2018-08-10T04:32:06.746Z,15.07
2018-08-10T04:33:06.769Z,15.04
2018-08-10T04:34:06.783Z,15.04
2018-08-10T04:35:14.873Z,14.91
2018-08-10T04:37:02.937Z,14.92
2018-08-10T04:38:01.569Z,15.00
2018-08-10T04:39:01.574Z,14.99
2018-08-10T04:40:01.568Z,14.99
2018-08-10T04:41:01.611Z,14.97
2018-08-10T04:42:01.536Z,14.99
2018-08-10T04:43:01.532Z,14.94
2018-08-10T04:44:01.526Z,14.97
2018-08-10T04:45:01.523Z,14.89
2018-08-10T04:46:01.513Z,14.94
2018-08-10T04:47:01.531Z,14.94
2018-08-10T04:48:01.513Z,14.88
2018-08-10T04:49:01.517Z,14.99
2018-08-10T04:50:02.177Z,14.96
2018-08-10T04:51:01.526Z,14.91
2018-08-10T04:52:01.484Z,14.97
2018-08-10T04:53:01.487Z,15.00
2018-08-10T04:54:01.473Z,14.92
2018-08-10T04:55:01.514Z,15.03
2018-08-10T04:56:01.465Z,14.97
2018-08-10T04:57:01.483Z,14.94
2018-08-10T04:58:01.456Z,14.97
2018-08-10T04:59:01.446Z,14.97
2018-08-10T05:00:01.447Z,15.00
2018-08-10T05:01:01.438Z,15.04
2018-08-10T05:02:01.434Z,14.97
2018-08-10T05:03:01.425Z,14.97
2018-08-10T05:04:01.424Z,15.06
2018-08-10T05:05:01.434Z,15.07
2018-08-10T05:06:01.418Z,15.06
2018-08-10T05:07:01.409Z,15.04
2018-08-10T05:08:01.406Z,15.19
2018-08-10T05:09:01.400Z,15.21
2018-08-10T05:10:01.490Z,15.22
2018-08-10T05:11:01.393Z,15.21
2018-08-10T05:12:01.386Z,15.39
2018-08-10T05:13:01.377Z,15.36
2018-08-10T05:14:01.374Z,15.36
2018-08-10T05:15:01.397Z,15.40
2018-08-10T05:16:01.365Z,15.40
2018-08-10T05:17:01.362Z,15.47
2018-08-10T05:18:01.361Z,15.52
2018-08-10T05:19:01.359Z,15.55
2018-08-10T05:20:01.357Z,15.59
2018-08-10T05:21:01.344Z,15.67
2018-08-10T05:22:01.348Z,15.61
2018-08-10T05:23:01.355Z,15.64
2018-08-10T05:24:01.348Z,15.73
2018-08-10T05:25:01.339Z,15.75
2018-08-10T05:26:01.401Z,15.77
2018-08-10T05:27:01.316Z,15.77
2018-08-10T05:28:01.321Z,15.91
2018-08-10T05:29:01.308Z,15.91
2018-08-10T05:30:01.309Z,16.01
2018-08-10T05:31:01.302Z,15.98
2018-08-10T05:32:01.300Z,16.05
2018-08-10T05:33:01.292Z,16.04
2018-08-10T05:34:01.314Z,16.10
2018-08-10T05:35:01.290Z,16.26
2018-08-10T05:36:01.287Z,16.35
2018-08-10T05:37:01.289Z,16.35
2018-08-10T05:38:01.280Z,16.46
2018-08-10T05:39:01.275Z,16.42
2018-08-10T05:40:01.272Z,16.58
2018-08-10T05:41:01.268Z,16.60
2018-08-10T05:42:01.262Z,16.49
2018-08-10T05:43:01.272Z,16.58
2018-08-10T05:44:01.278Z,16.56
2018-08-10T05:45:01.255Z,16.69
2018-08-10T05:46:01.255Z,16.76
2018-08-10T05:47:01.466Z,16.83
2018-08-10T05:48:01.264Z,16.84
2018-08-10T05:49:01.242Z,16.86
2018-08-10T05:50:01.271Z,17.01
2018-08-10T05:51:01.417Z,17.02
2018-08-10T05:52:01.256Z,17.06
2018-08-10T05:53:01.231Z,17.09
2018-08-10T05:54:01.232Z,17.12
2018-08-10T05:55:01.225Z,17.06
2018-08-10T05:56:01.225Z,17.05
2018-08-10T05:57:01.222Z,16.96
2018-08-10T05:58:01.224Z,17.11
2018-08-10T05:59:01.225Z,17.05
2018-08-10T06:00:01.218Z,17.22
2018-08-10T06:01:01.222Z,17.19
2018-08-10T06:02:01.217Z,17.34
2018-08-10T06:03:01.206Z,17.31
2018-08-10T06:04:01.376Z,17.42
2018-08-10T06:05:01.236Z,17.68
2018-08-10T06:06:01.203Z,17.82
2018-08-10T06:07:01.206Z,17.76
2018-08-10T06:08:01.202Z,17.78
2018-08-10T06:09:01.196Z,17.64
2018-08-10T06:10:01.190Z,17.83
2018-08-10T06:11:01.191Z,17.82
2018-08-10T06:12:01.193Z,17.85
2018-08-10T06:13:01.195Z,17.79
2018-08-10T06:14:01.221Z,17.78
2018-08-10T06:15:01.193Z,17.98
2018-08-10T06:16:01.180Z,18.10
2018-08-10T06:17:01.179Z,18.00
2018-08-10T06:18:01.180Z,18.00
2018-08-10T06:19:01.182Z,18.07
2018-08-10T06:20:01.236Z,18.13
2018-08-10T06:21:01.177Z,18.28
2018-08-10T06:22:01.175Z,18.20
2018-08-10T06:23:01.218Z,18.10
2018-08-10T06:24:01.171Z,18.28
2018-08-10T06:25:01.222Z,18.19
2018-08-10T06:26:01.167Z,18.15
2018-08-10T06:27:01.171Z,18.04
2018-08-10T06:28:01.167Z,18.07
2018-08-10T06:29:01.166Z,18.01
2018-08-10T06:30:01.162Z,18.00
2018-08-10T06:31:01.163Z,18.05
2018-08-10T06:32:01.160Z,18.00
2018-08-10T06:33:01.159Z,18.07
2018-08-10T06:34:01.203Z,18.13
2018-08-10T06:35:01.153Z,18.20
2018-08-10T06:36:01.157Z,18.37
2018-08-10T06:37:01.153Z,18.58
2018-08-10T06:38:01.150Z,18.47
2018-08-10T06:39:01.150Z,18.45
2018-08-10T06:40:01.144Z,18.38
2018-08-10T06:41:01.145Z,18.41
2018-08-10T06:42:01.148Z,18.45
2018-08-10T06:43:01.144Z,18.56
2018-08-10T06:44:01.141Z,18.62
2018-08-10T06:45:01.228Z,18.71
2018-08-10T06:46:01.135Z,18.81
2018-08-10T06:47:01.134Z,18.92
2018-08-10T06:48:01.151Z,18.98
2018-08-10T06:49:01.135Z,18.95
2018-08-10T06:50:03.742Z,19.04
2018-08-10T06:51:01.209Z,19.07
2018-08-10T06:52:01.128Z,19.02
2018-08-10T06:53:01.126Z,18.96
2018-08-10T06:54:01.129Z,18.84
2018-08-10T06:55:01.136Z,18.74
2018-08-10T06:56:01.145Z,18.71
2018-08-10T06:57:01.162Z,18.77
2018-08-10T06:58:01.120Z,18.66
2018-08-10T06:59:01.117Z,18.70
2018-08-10T07:00:01.114Z,18.74
2018-08-10T07:01:01.161Z,18.86
2018-08-10T07:02:01.113Z,18.73
2018-08-10T07:03:01.112Z,18.86
2018-08-10T07:04:01.110Z,18.96
2018-08-10T07:05:01.149Z,19.04
2018-08-10T07:06:01.109Z,19.00
2018-08-10T07:07:01.104Z,19.21
2018-08-10T07:08:01.101Z,19.33
2018-08-10T07:09:01.097Z,19.40
2018-08-10T07:10:01.098Z,19.34
2018-08-10T07:11:01.131Z,19.51
2018-08-10T07:12:01.755Z,19.56
2018-08-10T07:13:01.133Z,19.79
2018-08-10T07:14:01.092Z,19.89
2018-08-10T07:15:01.084Z,20.04
2018-08-10T07:16:01.087Z,20.16
2018-08-10T07:17:01.097Z,20.24
2018-08-10T07:18:01.083Z,20.06
2018-08-10T07:19:01.082Z,20.19
2018-08-10T07:20:01.087Z,20.26
2018-08-10T07:21:01.078Z,20.26
2018-08-10T07:22:01.077Z,20.39
2018-08-10T07:23:01.079Z,20.39
2018-08-10T07:24:01.078Z,20.22
2018-08-10T07:25:01.071Z,20.31
2018-08-10T07:26:01.070Z,20.28
2018-08-10T07:27:01.121Z,20.39
2018-08-10T07:28:01.085Z,20.66
2018-08-10T07:29:01.070Z,20.65
2018-08-10T07:30:01.066Z,20.78
2018-08-10T07:31:01.069Z,20.96
2018-08-10T07:32:01.073Z,21.03
2018-08-10T07:33:01.067Z,21.06
2018-08-10T07:34:01.068Z,21.18
2018-08-10T07:35:01.066Z,21.17
2018-08-10T07:36:01.069Z,21.20
2018-08-10T07:37:01.064Z,21.14
2018-08-10T07:38:01.067Z,21.29
2018-08-10T07:39:01.068Z,21.35
2018-08-10T07:40:01.073Z,21.43
2018-08-10T07:41:01.076Z,21.32
2018-08-10T07:42:01.068Z,21.39
2018-08-10T07:43:01.075Z,21.48
2018-08-10T07:44:01.076Z,21.55
2018-08-10T07:45:01.090Z,21.72
2018-08-10T07:46:01.076Z,21.69
2018-08-10T07:47:01.106Z,21.82
2018-08-10T07:48:01.085Z,21.98
2018-08-10T07:49:01.086Z,22.07
2018-08-10T07:50:01.090Z,22.14
2018-08-10T07:51:01.086Z,22.20
2018-08-10T07:52:01.120Z,22.20
2018-08-10T07:53:01.092Z,22.22
2018-08-10T07:54:01.093Z,22.13
2018-08-10T07:55:01.107Z,22.08
2018-08-10T07:56:01.102Z,21.82
2018-08-10T07:57:01.105Z,21.72
2018-08-10T07:58:01.104Z,21.85
2018-08-10T07:59:01.143Z,21.92
2018-08-10T08:00:01.112Z,22.07
2018-08-10T08:01:01.114Z,21.96
2018-08-10T08:02:01.115Z,22.17
2018-08-10T08:03:01.127Z,22.25
2018-08-10T08:04:01.123Z,22.38
2018-08-10T08:05:01.122Z,22.53
2018-08-10T08:06:01.182Z,22.50
2018-08-10T08:07:01.155Z,22.44
2018-08-10T08:08:01.147Z,22.53
2018-08-10T08:09:01.138Z,22.66
2018-08-10T08:10:01.148Z,22.70
2018-08-10T08:11:01.146Z,22.83
2018-08-10T08:12:01.164Z,22.84
2018-08-10T08:13:01.156Z,23.21
2018-08-10T08:14:01.164Z,23.31
2018-08-10T08:15:01.167Z,23.43
2018-08-10T08:16:01.168Z,23.28
2018-08-10T08:17:01.181Z,23.09
2018-08-10T08:18:01.266Z,22.68
2018-08-10T08:19:01.187Z,22.53
2018-08-10T08:20:01.288Z,22.29
2018-08-10T08:21:01.180Z,22.22
2018-08-10T08:22:01.182Z,22.20
2018-08-10T08:23:01.194Z,22.25
2018-08-10T08:24:01.198Z,22.57
2018-08-10T08:25:01.202Z,22.73
2018-08-10T08:26:01.205Z,22.84
2018-08-10T08:27:01.265Z,23.06
2018-08-10T08:28:01.206Z,23.09
2018-08-10T08:29:01.209Z,23.21
2018-08-10T08:30:01.212Z,23.25
2018-08-10T08:31:01.224Z,23.23
2018-08-10T08:32:01.220Z,23.31
2018-08-10T08:33:01.223Z,23.17
2018-08-10T08:34:01.228Z,23.34
2018-08-10T08:35:01.374Z,23.36
2018-08-10T08:36:01.245Z,23.39
2018-08-10T08:37:01.291Z,23.25
2018-08-10T08:38:01.258Z,23.36
2018-08-10T08:39:01.263Z,23.36
2018-08-10T08:40:01.262Z,23.36
2018-08-10T08:41:01.370Z,23.31
2018-08-10T08:42:01.257Z,23.28
2018-08-10T08:43:01.262Z,23.31
2018-08-10T08:44:01.265Z,23.36
2018-08-10T08:45:01.269Z,23.50
2018-08-10T08:46:01.462Z,23.59
2018-08-10T08:47:01.278Z,23.59
2018-08-10T08:48:01.287Z,23.59
2018-08-10T08:49:01.289Z,23.62
2018-08-10T08:50:01.307Z,23.62
2018-08-10T08:51:01.299Z,23.56
2018-08-10T08:52:01.309Z,23.74
2018-08-10T08:53:01.307Z,24.03
2018-08-10T08:54:01.335Z,23.95
2018-08-10T08:55:01.313Z,23.48
2018-08-10T08:56:01.318Z,23.17
2018-08-10T08:57:01.328Z,23.17
2018-08-10T08:58:01.329Z,23.23
2018-08-10T08:59:01.335Z,23.31
2018-08-10T09:00:01.354Z,23.28
2018-08-10T09:01:01.339Z,23.28
2018-08-10T09:02:01.362Z,23.27
2018-08-10T09:03:01.357Z,23.32
2018-08-10T09:04:01.364Z,23.32
2018-08-10T09:05:01.361Z,23.39
2018-08-10T09:06:01.362Z,23.55
2018-08-10T09:07:01.368Z,23.55
2018-08-10T09:08:01.374Z,23.37
2018-08-10T09:09:01.381Z,23.12
2018-08-10T09:10:01.433Z,22.84
2018-08-10T09:11:01.385Z,22.55
2018-08-10T09:12:01.382Z,22.30
2018-08-10T09:13:01.393Z,22.32
2018-08-10T09:14:01.391Z,22.29
2018-08-10T09:15:01.403Z,22.43
2018-08-10T09:16:01.403Z,22.48
2018-08-10T09:17:01.410Z,22.55
2018-08-10T09:18:01.403Z,22.68
2018-08-10T09:19:01.412Z,22.76
2018-08-10T09:20:01.414Z,22.94
2018-08-10T09:21:01.414Z,22.98
2018-08-10T09:22:01.412Z,23.00
2018-08-10T09:23:01.418Z,22.96
2018-08-10T09:24:01.420Z,22.76
2018-08-10T09:25:01.423Z,22.45
2018-08-10T09:26:01.434Z,22.29
2018-08-10T09:27:01.526Z,22.20
2018-08-10T09:28:01.430Z,22.22
2018-08-10T09:29:01.432Z,22.29
2018-08-10T09:30:01.433Z,22.50
2018-08-10T09:31:01.435Z,22.57
2018-08-10T09:32:01.442Z,22.54
2018-08-10T09:33:01.437Z,22.55
2018-08-10T09:34:01.442Z,22.41
2018-08-10T09:35:01.446Z,22.18
2018-08-10T09:36:01.447Z,22.18
2018-08-10T09:37:01.450Z,22.36
2018-08-10T09:38:01.447Z,22.55
2018-08-10T09:39:01.449Z,22.59
2018-08-10T09:40:01.452Z,22.59
2018-08-10T09:41:01.451Z,22.57
2018-08-10T09:42:01.476Z,22.54
2018-08-10T09:43:01.457Z,22.30
2018-08-10T09:44:01.456Z,22.17
2018-08-10T09:45:01.464Z,22.13
2018-08-10T09:46:01.467Z,22.06
2018-08-10T09:47:01.462Z,21.82
2018-08-10T09:48:01.460Z,21.72
2018-08-10T09:49:01.467Z,21.69
2018-08-10T09:50:01.462Z,21.62
2018-08-10T09:51:01.498Z,21.61
2018-08-10T09:52:01.467Z,21.80
2018-08-10T09:53:01.466Z,21.99
2018-08-10T09:54:01.470Z,22.13
2018-08-10T09:55:01.466Z,22.18
2018-08-10T09:56:01.467Z,22.17
2018-08-10T09:57:01.470Z,22.14
2018-08-10T09:58:01.475Z,22.51
2018-08-10T09:59:01.469Z,22.73
2018-08-10T10:00:01.471Z,22.94
2018-08-10T10:01:01.481Z,23.06
2018-08-10T10:02:01.474Z,23.36
2018-08-10T10:03:01.478Z,23.48
2018-08-10T10:04:01.488Z,23.74
2018-08-10T10:05:01.478Z,24.10
2018-08-10T10:06:01.486Z,24.38
2018-08-10T10:07:01.495Z,24.63
2018-08-10T10:08:01.487Z,24.61
2018-08-10T10:09:01.513Z,24.54
2018-08-10T10:10:01.500Z,24.35
2018-08-10T10:11:01.498Z,24.14
2018-08-10T10:12:01.506Z,23.92
2018-08-10T10:13:01.506Z,23.84
2018-08-10T10:14:01.505Z,24.06
2018-08-10T10:15:01.524Z,24.30
2018-08-10T10:16:01.519Z,24.42
2018-08-10T10:17:01.523Z,24.68
2018-08-10T10:18:01.530Z,24.99
2018-08-10T10:19:01.530Z,25.13
2018-08-10T10:20:01.542Z,25.17
2018-08-10T10:21:01.604Z,25.23
2018-08-10T10:22:01.548Z,25.44
2018-08-10T10:23:01.562Z,25.80
2018-08-10T10:24:01.546Z,26.06
2018-08-10T10:25:01.558Z,26.15
2018-08-10T10:26:01.561Z,25.99
2018-08-10T10:27:01.567Z,25.81
2018-08-10T10:28:01.579Z,25.77
2018-08-10T10:29:01.576Z,25.63
2018-08-10T10:30:01.579Z,25.68
2018-08-10T10:31:01.578Z,25.77
2018-08-10T10:32:01.596Z,25.96
2018-08-10T10:33:01.590Z,26.19
2018-08-10T10:34:01.601Z,26.21
2018-08-10T10:35:01.624Z,25.98
2018-08-10T10:36:01.626Z,25.59
2018-08-10T10:37:01.619Z,25.38
2018-08-10T10:38:01.625Z,25.44
2018-08-10T10:39:01.632Z,25.46
2018-08-10T10:40:01.643Z,25.73
2018-08-10T10:41:01.644Z,25.96
2018-08-10T10:42:01.641Z,26.28
2018-08-10T10:43:01.662Z,26.40
2018-08-10T10:44:01.692Z,26.65
2018-08-10T10:45:01.681Z,27.00
2018-08-10T10:46:01.685Z,27.05
2018-08-10T10:47:01.660Z,27.18
2018-08-10T10:48:01.670Z,27.26
2018-08-10T10:49:01.671Z,27.20
2018-08-10T10:50:01.678Z,26.93
2018-08-10T10:51:01.750Z,26.85
2018-08-10T10:52:01.726Z,26.81
2018-08-10T10:53:01.702Z,26.81
2018-08-10T10:54:01.700Z,26.96
2018-08-10T10:55:01.711Z,26.96
2018-08-10T10:56:01.715Z,26.89
2018-08-10T10:57:01.804Z,26.80
2018-08-10T10:58:01.730Z,26.83
2018-08-10T10:59:01.741Z,26.88
2018-08-10T11:00:01.741Z,26.88
2018-08-10T11:01:01.744Z,26.99
2018-08-10T11:02:01.749Z,27.25
2018-08-10T11:03:01.754Z,27.47
2018-08-10T11:04:01.760Z,27.39
2018-08-10T11:05:01.779Z,27.44
2018-08-10T11:06:01.808Z,27.26
2018-08-10T11:07:01.778Z,27.08
2018-08-10T11:08:01.781Z,27.21
2018-08-10T11:09:01.792Z,27.26
2018-08-10T11:10:01.805Z,27.52
2018-08-10T11:11:01.797Z,27.68
2018-08-10T11:12:01.804Z,27.73
2018-08-10T11:13:01.822Z,27.59
2018-08-10T11:14:01.827Z,27.65
2018-08-10T11:15:01.846Z,27.65
2018-08-10T11:16:01.833Z,27.60
2018-08-10T11:17:01.858Z,27.64
2018-08-10T11:18:01.888Z,27.63
2018-08-10T11:19:01.905Z,27.75
2018-08-10T11:20:01.866Z,27.75
2018-08-10T11:21:01.859Z,27.75
2018-08-10T11:22:01.871Z,27.92
2018-08-10T11:23:01.882Z,27.86
2018-08-10T11:24:01.895Z,27.85
2018-08-10T11:25:01.919Z,27.85
2018-08-10T11:26:02.503Z,27.60
2018-08-10T11:27:01.908Z,27.17
2018-08-10T11:28:01.909Z,27.14
2018-08-10T11:29:01.910Z,27.26
2018-08-10T11:30:01.919Z,27.59
2018-08-10T11:31:01.944Z,27.63
2018-08-10T11:32:01.956Z,27.63
2018-08-10T11:33:01.942Z,27.32
2018-08-10T11:34:01.940Z,26.93
2018-08-10T11:35:01.953Z,26.99
2018-08-10T11:36:01.969Z,27.03
2018-08-10T11:37:01.962Z,26.84
2018-08-10T11:38:01.978Z,26.77
2018-08-10T11:39:01.990Z,26.63
2018-08-10T11:40:01.982Z,26.80
2018-08-10T11:41:01.996Z,26.97
2018-08-10T11:42:01.996Z,26.88
2018-08-10T11:43:02.004Z,26.85
2018-08-10T11:44:02.012Z,26.73
2018-08-10T11:45:02.063Z,26.71
2018-08-10T11:46:02.019Z,26.63
2018-08-10T11:47:02.029Z,26.90
2018-08-10T11:48:02.030Z,27.05
2018-08-10T11:49:02.042Z,27.33
2018-08-10T11:50:02.055Z,27.36
2018-08-10T11:51:02.050Z,26.96
2018-08-10T11:52:02.054Z,26.07
2018-08-10T11:53:02.063Z,25.88
2018-08-10T11:54:02.071Z,25.93
2018-08-10T11:55:02.074Z,26.16
2018-08-10T11:56:02.083Z,26.21
2018-08-10T11:57:02.088Z,26.40
2018-08-10T11:58:02.094Z,26.52
2018-08-10T11:59:02.125Z,26.52
2018-08-10T12:00:02.139Z,26.83
2018-08-10T12:01:02.108Z,26.83
2018-08-10T12:02:02.230Z,26.84
2018-08-10T12:03:02.137Z,26.84
2018-08-10T12:04:02.131Z,26.95
2018-08-10T12:05:02.139Z,26.68
2018-08-10T12:06:02.290Z,26.41
2018-08-10T12:07:02.143Z,26.21
2018-08-10T12:08:02.148Z,26.33
2018-08-10T12:09:02.155Z,26.40
2018-08-10T12:10:02.158Z,26.59
2018-08-10T12:11:02.164Z,26.66
2018-08-10T12:12:02.171Z,26.81
2018-08-10T12:13:02.184Z,27.02
2018-08-10T12:14:02.187Z,26.84
2018-08-10T12:15:02.188Z,26.56
2018-08-10T12:16:02.196Z,26.43
2018-08-10T12:17:02.232Z,26.25
2018-08-10T12:18:02.207Z,26.10
2018-08-10T12:19:02.224Z,26.02
2018-08-10T12:20:02.220Z,26.07
2018-08-10T12:21:02.231Z,26.13
2018-08-10T12:22:02.231Z,26.15
2018-08-10T12:23:02.242Z,26.28
2018-08-10T12:24:02.250Z,26.41
2018-08-10T12:25:02.250Z,26.71
2018-08-10T12:26:02.253Z,26.66
2018-08-10T12:27:02.264Z,26.52
2018-08-10T12:28:02.270Z,26.33
2018-08-10T12:29:02.269Z,25.87
2018-08-10T12:30:02.272Z,25.69
2018-08-10T12:31:02.283Z,25.87
2018-08-10T12:32:02.297Z,26.15
2018-08-10T12:33:02.291Z,26.28
2018-08-10T12:34:02.301Z,26.68
2018-08-10T12:35:02.317Z,26.81
2018-08-10T12:36:02.335Z,27.00
2018-08-10T12:37:02.324Z,26.99
2018-08-10T12:38:02.324Z,27.08
2018-08-10T12:39:02.330Z,27.21
2018-08-10T12:40:02.338Z,26.99
2018-08-10T12:41:02.343Z,26.97
2018-08-10T12:42:02.348Z,27.00
2018-08-10T12:43:02.358Z,27.15
2018-08-10T12:44:02.368Z,27.30
2018-08-10T12:45:02.379Z,27.49
2018-08-10T12:46:02.367Z,27.48
2018-08-10T12:47:02.374Z,27.33
2018-08-10T12:48:02.375Z,27.02
2018-08-10T12:49:02.400Z,26.55
2018-08-10T12:50:02.388Z,26.10
2018-08-10T12:51:02.396Z,25.99
2018-08-10T12:52:02.413Z,25.73
2018-08-10T12:53:02.404Z,25.73